ADDS METAR Data INFO
IDs: Format: Raw Decoded Include TAF

Data at: 0323 UTC 16 Dec 2017

KCVX 160315Z AUTO 29012G17KT 5SM -SN SCT031 BKN039 OVC048 M04/M09 A2981 RMK AO2 T10451093
KCVX 160255Z AUTO 28013G17KT 10SM -SN BKN031 BKN037 OVC050 M04/M09 A2981 RMK AO2 T10421095
KCVX 160235Z AUTO 30013G19KT 5SM HZ SCT030 BKN042 OVC050 M04/M09 A2981 RMK AO2 T10421091
KCVX 160215Z AUTO 30014G20KT 4SM -SN SCT035 BKN044 OVC050 M04/M10 A2981 RMK AO2 T10401099
KCVX 160155Z AUTO 28013KT 5SM -SN SCT025 BKN035 OVC050 M04/M09 A2980 RMK AO2 T10421094
KCVX 160135Z AUTO 27011G14KT 10SM SCT036 SCT042 OVC050 M04/M10 A2980 RMK AO2 T10401096
KCVX 160115Z AUTO 28014G19KT 7SM SCT018 BKN036 OVC055 M04/M10 A2979 RMK AO2 T10391096
KCVX 160055Z AUTO 28009G16KT 5SM -SN SCT011 SCT021 OVC065 M04/M09 A2979 RMK AO2 T10441091
KCVX 160035Z AUTO 29017G21KT 5SM HZ SCT031 SCT041 OVC050 M04/M10 A2978 RMK AO2 T10391099
KCVX 160015Z AUTO 29016G20KT 7SM -SN SCT040 OVC048 M04/M11 A2978 RMK AO2 T10391109
KCVX 152355Z AUTO 30012G21KT 7SM SCT040 OVC050 M04/M11 A2977 RMK AO2 T10401114 11030 21042
KCVX 152335Z AUTO 30012G22KT 7SM SCT041 BKN046 OVC050 M04/M10 A2976 RMK AO2 T10361103
KCVX 152315Z AUTO 28011G22KT 5SM HZ SCT041 BKN046 OVC050 M04/M11 A2976 RMK AO2 T10371109
KCVX 152255Z AUTO 29011G20KT 5SM HZ SCT042 SCT048 OVC060 M04/M11 A2976 RMK AO2 T10361106
KCVX 152235Z AUTO 28017G21KT 5SM HZ SCT032 SCT041 OVC060 M04/M10 A2976 RMK AO2 T10401097
KCVX 152215Z AUTO 28014G19KT 4SM HZ SCT013 BKN040 OVC060 M04/M10 A2975 RMK AO2 T10371099
KCVX 152155Z AUTO 29012G28KT 1SM -SN SCT010 BKN022 OVC040 M04/M09 A2974 RMK AO2 VIS 1/2V5 T10411091
KCVX 152135Z AUTO 28019G23KT 2SM -SN SCT021 BKN042 OVC050 M04/M10 A2973 RMK AO2 T10371099
KCVX 152115Z AUTO 29011G22KT 4SM HZ SCT041 OVC050 M03/M11 A2973 RMK AO2 T10351106
KCVX 152055Z AUTO 28018G24KT 4SM HZ SCT039 OVC048 M03/M10 A2972 RMK AO2 T10321098
KCVX 152035Z AUTO 28014G23KT 4SM HZ SCT034 OVC043 M03/M09 A2972 RMK AO2 T10321094
KCVX 152015Z AUTO 29016G24KT 5SM HZ SCT031 BKN038 OVC050 M03/M08 A2971 RMK AO2 T10311085
KCVX 151955Z AUTO 29014G19KT 4SM HZ SCT031 BKN050 OVC060 M03/M09 A2971 RMK AO2 T10311086
KCVX 151935Z AUTO 29016G23KT 3SM HZ SCT031 BKN041 OVC049 M03/M09 A2971 RMK AO2 T10311090
KCVX 151915Z AUTO 28017G23KT 2SM -SN SCT027 BKN036 OVC045 M03/M08 A2971 RMK AO2 VIS 1 1/2V3 T10321078
KCVX 151855Z AUTO 28014G22KT 2SM -SN SCT027 BKN031 OVC041 M03/M08 A2971 RMK AO2 VIS 1 1/4V5 T10311081
KCVX 151835Z AUTO 29015G23KT 2SM -SN SCT025 BKN031 OVC038 M03/M08 A2970 RMK AO2 VIS 1 1/4V3 T10301078
KCVX 151815Z AUTO 29012G21KT 2SM -SN SCT021 BKN027 OVC043 M03/M08 A2970 RMK AO2 VIS 1V4 T10311076
KCVX 151755Z AUTO 29017G23KT 2SM -SN SCT012 BKN028 OVC048 M03/M08 A2970 RMK AO2 T10301077 11030 21045
KCVX 151736Z AUTO 29013G19KT 2SM -SN BKN014 BKN024 OVC028 M03/M07 A2970 RMK AO2 T10311071
KCVX 151715Z AUTO 28013G17KT 5SM -SN SCT012 BKN033 OVC046 M03/M07 A2971 RMK AO2 T10311072
KCVX 151655Z AUTO 28011KT 7SM SCT023 BKN039 OVC060 M03/M07 A2971 RMK AO2 T10321073
KCVX 151635Z AUTO 30010G16KT 10SM SCT024 BKN034 OVC060 M03/M08 A2972 RMK AO2 T10351076
KCVX 151615Z AUTO 30008KT 10SM SCT024 BKN030 OVC039 M04/M08 A2972 RMK AO2 T10371081
KCVX 151555Z AUTO 28010G14KT 10SM SCT009 BKN027 OVC034 M04/M08 A2972 RMK AO2 T10371080
KCVX 151535Z AUTO 29011KT 1 3/4SM -SN SCT006 BKN010 OVC019 M04/M06 A2972 RMK AO2 T10401065
KCVX 151515Z AUTO 30011G14KT 1 3/4SM -SN SCT010 OVC017 M04/M06 A2972 RMK AO2 VIS 1 1/4V4 T10401061
KCVX 151455Z AUTO 29012G17KT 3SM -SN SCT006 BKN012 OVC022 M04/M06 A2972 RMK AO2 T10401065
KCVX 151435Z AUTO 27013G18KT 3/4SM -SN BKN006 OVC009 M04/M06 A2972 RMK AO2 T10421059
KCVX 151415Z AUTO 28011G17KT 3/4SM -SN BKN002 OVC007 M04/M05 A2972 RMK AO2 T10441052
KCVX 151355Z AUTO 26010KT 1/4SM SN OVC002 M04/M04 A2973 RMK AO2 T10411042
KCVX 151335Z AUTO 24008KT 1/2SM SN OVC004 M04/M05 A2973 RMK AO2 T10431052
KCVX 151315Z AUTO 24009KT 3SM -SN SCT003 BKN019 OVC032 M04/M05 A2973 RMK AO2 T10391051
KCVX 151255Z AUTO 22007KT 2 1/2SM -SN SCT008 BKN012 OVC018 M04/M05 A2973 RMK AO2 T10411053
KCVX 151235Z AUTO 23007KT 4SM -SN SCT014 BKN020 OVC027 M04/M06 A2974 RMK AO2 T10381058
KCVX 151215Z AUTO 25009G17KT 2 1/2SM -SN SCT003 BKN013 OVC020 M04/M05 A2974 RMK AO2 T10371050
KCVX 151155Z AUTO 25012G16KT 1/2SM SN OVC003 M04/M04 A2975 RMK AO2 T10401040 11040 21056
KCVX 151135Z AUTO 21005KT 3/4SM SN OVC003 M05/M05 A2976 RMK AO2 T10501050
KCVX 151115Z AUTO 16004KT 1 1/4SM -SN BKN003 OVC010 M05/M05 A2976 RMK AO2 T10511051
KCVX 151055Z AUTO 17005KT 1SM SN OVC003 M05/M05 A2976 RMK AO2 T10531053
KCVX 151035Z AUTO 16006KT 1/2SM SN OVC003 M05/M05 A2977 RMK AO2 T10531053
KCVX 151015Z AUTO 16006KT 3/4SM SN OVC003 M05/M05 A2978 RMK AO2 T10531053
KCVX 150955Z AUTO 16006KT 3/4SM SN OVC003 M05/M05 A2979 RMK AO2 T10521053
KCVX 150935Z AUTO 16005KT 1 3/4SM -SN BKN005 BKN013 OVC018 M05/M05 A2980 RMK AO2 T10521055
KCVX 150915Z AUTO 16005KT 2 1/2SM -SN SCT003 BKN016 OVC023 M05/M06 A2981 RMK AO2 T10551058
KCVX 150855Z AUTO 17005KT 1 1/4SM -SN SCT003 BKN008 OVC014 M06/M06 A2982 RMK AO2 T10561061
KCVX 150835Z AUTO 17007KT 2SM -SN OVC006 M05/M06 A2983 RMK AO2 T10551061
KCVX 150815Z AUTO 17007KT 1 1/4SM -SN OVC005 M05/M06 A2984 RMK AO2 T10551061
KCVX 150755Z AUTO 17005KT 1 1/4SM SN OVC005 M05/M06 A2984 RMK AO2 T10521060
KCVX 150735Z AUTO 17006KT 1 1/4SM -SN SCT005 BKN009 OVC019 M05/M06 A2985 RMK AO2 T10501060
KCVX 150715Z AUTO 17007KT 5SM -SN SCT018 BKN042 OVC048 M05/M06 A2985 RMK AO2 T10501060
KCVX 150655Z AUTO 15004KT 5SM -SN SCT015 BKN026 OVC038 M05/M06 A2987 RMK AO2 T10531064
KCVX 150635Z AUTO 16005KT 5SM -SN OVC021 M05/M06 A2987 RMK AO2 T10521064
KCVX 150615Z AUTO 15005KT 2 1/2SM -SN SCT011 BKN021 OVC025 M05/M06 A2988 RMK AO2 T10531065
KCVX 150555Z AUTO 16004KT 2SM -SN SCT006 BKN011 OVC021 M05/M07 A2989 RMK AO2 T10551070 11040 21055
KCVX 150535Z AUTO 16004KT 3SM -SN SCT009 BKN014 OVC022 M05/M07 A2990 RMK AO2 T10551071
KCVX 150515Z AUTO 19004KT 5SM -SN SCT014 BKN021 OVC036 M05/M08 A2991 RMK AO2 T10501077
KCVX 150455Z AUTO 14004KT 10SM -SN SCT021 SCT029 OVC036 M05/M08 A2992 RMK AO2 T10491080
KCVX 150435Z AUTO 15004KT 7SM -SN SCT021 OVC030 M05/M08 A2993 RMK AO2 T10481083
KCVX 150415Z AUTO 17005KT 10SM BKN030 OVC036 M05/M09 A2994 RMK AO2 T10471090
KCVX 150355Z AUTO 16003KT 10SM BKN034 OVC041 M04/M10 A2994 RMK AO2 T10441096 410401098
KCVX 150335Z AUTO 22003KT 10SM BKN033 OVC038 M04/M10 A2995 RMK AO2 T10401096
KCVX 150315Z AUTO 26006KT 10SM SCT035 BKN041 OVC047 M04/M10 A2995 RMK AO2 T10401096
KCVX 150255Z AUTO 28006KT 10SM OVC033 M04/M10 A2996 RMK AO2 T10411100
KCVX 150235Z AUTO 31004KT 10SM OVC035 M04/M10 A2997 RMK AO2 T10421105
KCVX 150215Z AUTO 30009G15KT 10SM OVC035 M04/M10 A2997 RMK AO2 T10421101
KCVX 150155Z AUTO 30011KT 10SM OVC033 M04/M10 A2997 RMK AO2 T10421102
KCVX 150135Z AUTO 28006KT 10SM -SN OVC033 M04/M10 A2997 RMK AO2 T10421098
KCVX 150115Z AUTO 28005G10KT 10SM -SN OVC033 M04/M10 A2997 RMK AO2 T10431101
KCVX 150055Z AUTO 29009G14KT 7SM -SN OVC032 M04/M10 A2998 RMK AO2 T10441100
KCVX 150035Z AUTO 27009G18KT 10SM BKN036 OVC043 M04/M11 A2997 RMK AO2 T10451106
KCVX 150015Z AUTO 27010KT 10SM SCT038 OVC045 M05/M12 A2998 RMK AO2 T10481117
KCVX 142355Z AUTO 27012KT 7SM OVC039 M05/M11 A2998 RMK AO2 T10461111 11042 21057
KCVX 142335Z AUTO 27011KT 10SM BKN036 OVC043 M05/M10 A2998 RMK AO2 T10461105
KCVX 142315Z AUTO 27013KT 7SM BKN037 OVC044 M05/M10 A2998 RMK AO2 T10471105
KCVX 142255Z AUTO 27010KT 10SM OVC037 M05/M11 A2997 RMK AO2 T10461106
KCVX 142235Z AUTO 26009G18KT 7SM OVC035 M04/M10 A2997 RMK AO2 T10451101
KCVX 142215Z AUTO 26008KT 10SM BKN035 OVC043 M04/M11 A2997 RMK AO2 T10451108
KCVX 142155Z AUTO 24011KT 10SM SCT031 BKN037 OVC047 M04/M11 A2997 RMK AO2 T10441108
KCVX 142135Z AUTO 24008KT 10SM BKN033 OVC041 M04/M10 A2996 RMK AO2 T10431100
KCVX 142115Z AUTO 27009KT 10SM SCT033 OVC040 M04/M10 A2996 RMK AO2 T10451101
KCVX 142056Z AUTO 28011KT 10SM SCT035 OVC041 M04/M11 A2996 RMK AO2 T10451108
KCVX 142035Z AUTO 25009KT 10SM BKN035 OVC041 M04/M10 A2997 RMK AO2 T10451103
KCVX 142015Z AUTO 26012KT 10SM OVC037 M04/M11 A2997 RMK AO2 T10451106
KCVX 141956Z AUTO 27008KT 10SM SCT025 OVC035 M04/M10 A2997 RMK AO2 T10451100
KCVX 141935Z AUTO 24005KT 10SM -SN BKN025 OVC038 M05/M08 A2997 RMK AO2 T10471082
KCVX 141915Z AUTO 27008KT 10SM SCT029 OVC039 M04/M11 A2997 RMK AO2 T10451108
KCVX 141856Z AUTO 25012KT 10SM SCT006 BKN025 OVC039 M05/M09 A2997 RMK AO2 T10461091
KCVX 141835Z AUTO 27006KT 1 1/2SM -SN SCT007 BKN016 OVC027 M05/M08 A2997 RMK AO2 T10491078
KCVX 141815Z AUTO 00000KT 10SM -SN SCT022 BKN026 OVC033 M05/M08 A2997 RMK AO2 T10531079
KCVX 141755Z AUTO 00000KT 5SM -SN SCT008 SCT015 OVC021 M06/M08 A2998 RMK AO2 T10571082 11052 21078
KCVX 141735Z AUTO 29004KT 1 3/4SM -SN SCT007 SCT014 OVC021 M05/M09 A2998 RMK AO2 T10541088
KCVX 141715Z AUTO 31004KT 1 3/4SM -SN SCT007 BKN020 OVC025 M06/M10 A2999 RMK AO2 VIS 3/4V5 T10561096
KCVX 141655Z AUTO 31005KT 10SM BKN025 OVC031 M06/M10 A2999 RMK AO2 T10561100
KCVX 141635Z AUTO 33006KT 10SM -SN OVC027 M06/M11 A2999 RMK AO2 T10591107
KCVX 141615Z AUTO 31007KT 10SM -SN OVC027 M06/M11 A3000 RMK AO2 T10601110
KCVX 141555Z AUTO 32008KT 10SM -SN OVC027 M06/M11 A2999 RMK AO2 T10611110
KCVX 141535Z AUTO 35008G14KT 10SM -SN SCT023 OVC029 M06/M11 A2999 RMK AO2 T10641113